createdAt,value
2022-11-28T00:10:01.525Z,87.29
2022-11-28T00:20:05.213Z,87.13
2022-11-28T00:30:11.083Z,87.05
2022-11-28T00:40:14.031Z,86.62
2022-11-28T00:50:18.764Z,86.70
2022-11-28T01:00:22.292Z,86.13
2022-11-28T01:10:27.490Z,85.52
2022-11-28T01:20:30.385Z,85.41
2022-11-28T01:30:35.422Z,85.00
2022-11-28T01:40:45.334Z,85.41
2022-11-28T01:50:55.734Z,85.37
2022-11-28T02:00:58.934Z,85.82
2022-11-28T02:11:31.375Z,85.71
2022-11-28T02:21:54.390Z,85.87
2022-11-28T02:32:06.509Z,85.71
2022-11-28T02:42:15.620Z,85.80
2022-11-28T02:52:24.519Z,84.81
2022-11-28T03:02:33.804Z,84.94
2022-11-28T03:12:49.986Z,84.71
2022-11-28T03:23:12.558Z,85.02
2022-11-28T03:33:19.279Z,85.01
2022-11-28T03:43:28.250Z,85.14
2022-11-28T03:53:44.882Z,85.31
2022-11-28T04:03:55.452Z,85.24
2022-11-28T04:14:08.973Z,85.26
2022-11-28T04:24:20.751Z,85.59
2022-11-28T04:34:28.101Z,86.05
2022-11-28T04:44:37.712Z,86.48
2022-11-28T04:54:51.974Z,86.71
2022-11-28T05:04:56.044Z,86.77
2022-11-28T05:15:00.557Z,86.65
2022-11-28T05:25:11.064Z,86.79
2022-11-28T05:35:17.173Z,86.62
2022-11-28T05:45:20.430Z,86.58
2022-11-28T05:55:24.882Z,86.17
2022-11-28T06:05:42.846Z,85.81
2022-11-28T06:15:47.937Z,85.70
2022-11-28T06:25:50.935Z,85.24
2022-11-28T06:36:07.068Z,84.63
2022-11-28T06:46:15.897Z,83.82
2022-11-28T06:56:21.698Z,83.14
2022-11-28T07:06:26.991Z,83.37
2022-11-28T07:16:33.131Z,83.13
2022-11-28T07:26:38.198Z,82.62
2022-11-28T07:36:42.943Z,83.09
2022-11-28T07:46:49.397Z,83.18
2022-11-28T07:57:12.499Z,82.21
2022-11-28T08:07:16.542Z,82.68
2022-11-28T08:17:21.382Z,82.48
2022-11-28T08:27:30.139Z,82.56
2022-11-28T08:37:34.976Z,82.04
2022-11-28T08:47:42.564Z,82.73
2022-11-28T08:57:46.984Z,82.65
2022-11-28T09:07:51.346Z,82.67
2022-11-28T09:17:56.779Z,82.57
2022-11-28T09:28:01.563Z,82.51
2022-11-28T09:38:09.617Z,82.45
2022-11-28T09:48:31.329Z,82.49
2022-11-28T09:59:25.092Z,83.02
2022-11-28T10:09:37.568Z,82.93
2022-11-28T10:19:55.371Z,82.93
2022-11-28T10:30:03.194Z,82.75
2022-11-28T10:40:20.533Z,82.78
2022-11-28T10:50:34.145Z,82.39
2022-11-28T11:00:39.613Z,81.82
2022-11-28T11:10:49.618Z,81.47
2022-11-28T11:21:08.652Z,80.87
2022-11-28T11:31:26.558Z,81.33
2022-11-28T11:41:34.268Z,79.76
2022-11-28T11:51:39.506Z,80.68
2022-11-28T12:01:46.802Z,79.69
2022-11-28T12:11:54.633Z,80.52
2022-11-28T12:22:12.491Z,80.58
2022-11-28T12:32:29.134Z,81.31
2022-11-28T12:42:51.691Z,81.66
2022-11-28T12:53:02.181Z,82.46
2022-11-28T13:03:17.308Z,83.06
2022-11-28T13:13:25.614Z,83.39
2022-11-28T13:23:40.672Z,83.33
2022-11-28T13:33:50.555Z,83.38
2022-11-28T13:44:02.585Z,83.54
2022-11-28T13:54:42.772Z,83.83
2022-11-28T14:04:48.162Z,82.65
2022-11-28T14:15:06.620Z,82.54
2022-11-28T14:25:18.830Z,83.19
2022-11-28T14:36:04.593Z,83.39
2022-11-28T14:46:30.537Z,83.46
2022-11-28T14:56:35.560Z,83.66
2022-11-28T15:06:48.276Z,83.74
2022-11-28T15:16:58.688Z,83.80
2022-11-28T15:27:32.974Z,83.85
2022-11-28T15:37:36.608Z,84.18
2022-11-28T15:47:41.120Z,84.39
2022-11-28T15:57:44.418Z,84.41
2022-11-28T16:07:52.846Z,84.25
2022-11-28T16:18:00.033Z,84.17
2022-11-28T16:28:26.139Z,84.13
2022-11-28T16:38:33.316Z,84.38
2022-11-28T16:48:46.877Z,84.66
2022-11-28T16:58:54.066Z,84.79
2022-11-28T17:08:59.303Z,84.87
2022-11-28T17:19:03.785Z,85.11
2022-11-28T17:29:13.223Z,85.08
2022-11-28T17:39:19.132Z,85.38
2022-11-28T17:49:26.032Z,85.34
2022-11-28T17:59:29.625Z,85.52
2022-11-28T18:09:41.591Z,85.68
2022-11-28T18:19:47.027Z,86.07
2022-11-28T18:29:51.584Z,86.19
2022-11-28T18:39:54.721Z,86.42
2022-11-28T18:50:02.007Z,86.55
2022-11-28T19:00:09.479Z,86.42
2022-11-28T19:10:18.273Z,86.43
2022-11-28T19:20:24.904Z,86.14
2022-11-28T19:30:29.954Z,86.19
2022-11-28T19:40:35.861Z,86.18
2022-11-28T19:50:40.519Z,86.24
2022-11-28T20:00:43.955Z,86.19
2022-11-28T20:10:48.549Z,86.03
2022-11-28T20:20:51.674Z,86.20
2022-11-28T20:30:56.131Z,86.24
2022-11-28T20:41:01.157Z,86.54
2022-11-28T20:51:09.088Z,86.78
2022-11-28T21:01:18.646Z,87.14
2022-11-28T21:11:55.228Z,87.16
2022-11-28T21:21:47.683Z,87.02
2022-11-28T21:31:52.773Z,86.97
2022-11-28T21:42:00.101Z,86.76
2022-11-28T21:52:06.540Z,86.69
2022-11-28T22:02:13.169Z,86.67
2022-11-28T22:12:17.632Z,86.56
2022-11-28T22:22:20.845Z,87.03
2022-11-28T22:32:25.443Z,87.10
2022-11-28T22:42:28.456Z,87.28
2022-11-28T22:52:34.773Z,87.26
2022-11-28T23:02:37.824Z,87.23
2022-11-28T23:12:42.428Z,87.12
2022-11-28T23:22:46.645Z,86.93
2022-11-28T23:32:51.075Z,86.89
2022-11-28T23:42:54.025Z,86.79
2022-11-28T23:52:58.369Z,86.63
